createdAt,value
2017-02-22T00:00:05.378Z,1003.88
2017-02-22T00:00:45.875Z,1003.82
2017-02-22T00:01:26.430Z,1003.83
2017-02-22T00:02:06.900Z,1003.82
2017-02-22T00:02:47.409Z,1003.82
2017-02-22T00:03:27.921Z,1003.8
2017-02-22T00:04:08.439Z,1003.82
2017-02-22T00:04:48.918Z,1003.77
2017-02-22T00:05:29.422Z,1003.74
2017-02-22T00:06:09.974Z,1003.76
2017-02-22T00:06:50.425Z,1003.75
2017-02-22T00:07:30.965Z,1003.77
2017-02-22T00:08:11.531Z,1003.75
2017-02-22T00:08:52.036Z,1003.79
2017-02-22T00:09:32.548Z,1003.79
2017-02-22T00:10:13.068Z,1003.76
2017-02-22T00:10:53.555Z,1003.77
2017-02-22T00:11:34.065Z,1003.77
2017-02-22T00:12:14.617Z,1003.72
2017-02-22T00:12:55.211Z,1003.72
2017-02-22T00:13:35.694Z,1003.7
2017-02-22T00:14:16.201Z,1003.74
2017-02-22T00:14:56.689Z,1003.7
2017-02-22T00:15:37.193Z,1003.77
2017-02-22T00:16:17.729Z,1003.68
2017-02-22T00:16:58.279Z,1003.68
2017-02-22T00:17:38.750Z,1003.68
2017-02-22T00:18:19.289Z,1003.69
2017-02-22T00:18:59.806Z,1003.72
2017-02-22T00:19:40.278Z,1003.71
2017-02-22T00:20:20.790Z,1003.76
2017-02-22T00:21:01.460Z,1003.73
2017-02-22T00:21:41.821Z,1003.75
2017-02-22T00:22:22.314Z,1003.78
2017-02-22T00:23:02.798Z,1003.7
2017-02-22T00:23:43.321Z,1003.73
2017-02-22T00:24:23.799Z,1003.69
2017-02-22T00:25:04.307Z,1003.75
2017-02-22T00:25:44.850Z,1003.7
2017-02-22T00:26:25.369Z,1003.71
2017-02-22T00:27:05.786Z,1003.73
2017-02-22T00:27:46.357Z,1003.7
2017-02-22T00:28:26.858Z,1003.69
2017-02-22T00:29:07.289Z,1003.63
2017-02-22T00:29:47.806Z,1003.64
2017-02-22T00:30:28.299Z,1003.63
2017-02-22T00:31:08.797Z,1003.63
2017-02-22T00:31:49.313Z,1003.66
2017-02-22T00:32:29.761Z,1003.63
2017-02-22T00:33:10.309Z,1003.61
2017-02-22T00:33:50.826Z,1003.53
2017-02-22T00:34:31.306Z,1003.58
2017-02-22T00:35:11.818Z,1003.6
2017-02-22T00:35:52.320Z,1003.6
2017-02-22T00:36:32.837Z,1003.55
2017-02-22T00:37:13.271Z,1003.52
2017-02-22T00:37:53.808Z,1003.54
2017-02-22T00:38:34.251Z,1003.48
2017-02-22T00:39:14.812Z,1003.55
2017-02-22T00:39:55.321Z,1003.53
2017-02-22T00:40:35.848Z,1003.5
2017-02-22T00:41:16.325Z,1003.5
2017-02-22T00:41:56.852Z,1003.48
2017-02-22T00:42:37.386Z,1003.54
2017-02-22T00:43:17.865Z,1003.55
2017-02-22T00:43:58.361Z,1003.5
2017-02-22T00:44:38.863Z,1003.56
2017-02-22T00:45:19.382Z,1003.49
2017-02-22T00:45:59.865Z,1003.45
2017-02-22T00:46:40.406Z,1003.48
2017-02-22T00:47:20.889Z,1003.42
2017-02-22T00:48:01.395Z,1003.45
2017-02-22T00:48:41.912Z,1003.46
2017-02-22T00:49:22.412Z,1003.43
2017-02-22T00:50:02.934Z,1003.42
2017-02-22T00:50:43.485Z,1003.4
2017-02-22T00:51:23.999Z,1003.36
2017-02-22T00:52:04.464Z,1003.37
2017-02-22T00:52:44.952Z,1003.35
2017-02-22T00:53:25.468Z,1003.35
2017-02-22T00:54:05.980Z,1003.37
2017-02-22T00:54:46.515Z,1003.36
2017-02-22T00:55:27.025Z,1003.42
2017-02-22T00:56:07.552Z,1003.36
2017-02-22T00:56:48.057Z,1003.34
2017-02-22T00:57:28.515Z,1003.35
2017-02-22T00:58:09.030Z,1003.38
2017-02-22T00:58:49.541Z,1003.36
2017-02-22T00:59:30.057Z,1003.35
2017-02-22T01:00:10.551Z,1003.33
2017-02-22T01:00:51.056Z,1003.37
2017-02-22T01:01:31.607Z,1003.33
2017-02-22T01:02:12.099Z,1003.34
2017-02-22T01:02:52.590Z,1003.36
2017-02-22T01:03:33.078Z,1003.36
2017-02-22T01:04:13.578Z,1003.34
2017-02-22T01:04:54.065Z,1003.37
2017-02-22T01:05:34.538Z,1003.34
2017-02-22T01:06:15.052Z,1003.4
2017-02-22T01:06:55.573Z,1003.36
2017-02-22T01:07:36.102Z,1003.27
2017-02-22T01:08:16.609Z,1003.33
2017-02-22T01:08:57.129Z,1003.23
2017-02-22T01:09:37.601Z,1003.23
2017-02-22T01:10:18.047Z,1003.28
2017-02-22T01:10:58.525Z,1003.27
2017-02-22T01:11:39.052Z,1003.26
2017-02-22T01:12:19.543Z,1003.26
2017-02-22T01:13:00.045Z,1003.25
2017-02-22T01:13:40.579Z,1003.23
2017-02-22T01:14:21.082Z,1003.23
2017-02-22T01:15:01.874Z,1003.27
2017-02-22T01:15:42.443Z,1003.2
2017-02-22T01:16:22.939Z,1003.19
2017-02-22T01:17:03.461Z,1003.15
2017-02-22T01:17:44.083Z,1003.13
2017-02-22T01:18:24.587Z,1003.14
2017-02-22T01:19:05.100Z,1003.12
2017-02-22T01:19:45.607Z,1003.15
2017-02-22T01:20:26.070Z,1003.04
2017-02-22T01:21:06.576Z,1003.07
2017-02-22T01:21:47.071Z,1003.03
2017-02-22T01:22:27.559Z,1002.99
2017-02-22T01:23:08.112Z,1003.03
2017-02-22T01:23:48.574Z,1003.04
2017-02-22T01:24:29.082Z,1003.03
2017-02-22T01:25:09.587Z,1003.01
2017-02-22T01:25:50.074Z,1003.06
2017-02-22T01:26:30.591Z,1002.95
2017-02-22T01:27:11.080Z,1002.95
2017-02-22T01:27:51.600Z,1002.96
2017-02-22T01:28:32.122Z,1002.98
2017-02-22T01:29:12.608Z,1002.95
2017-02-22T01:29:53.150Z,1002.93
2017-02-22T01:30:33.671Z,1002.9
2017-02-22T01:31:14.147Z,1002.89
2017-02-22T01:31:54.700Z,1002.82
2017-02-22T01:32:35.258Z,1002.89
2017-02-22T01:33:15.814Z,1002.87
2017-02-22T01:33:56.296Z,1002.85
2017-02-22T01:34:36.885Z,1002.82
2017-02-22T01:35:17.401Z,1002.81
2017-02-22T01:35:57.895Z,1002.77
2017-02-22T01:36:38.420Z,1002.76
2017-02-22T01:37:18.969Z,1002.79
2017-02-22T01:37:59.413Z,1002.81
2017-02-22T01:38:39.940Z,1002.82
2017-02-22T01:39:20.439Z,1002.75
2017-02-22T01:40:00.950Z,1002.75
2017-02-22T01:40:41.500Z,1002.68
2017-02-22T01:41:22.885Z,1002.64
2017-02-22T01:42:02.515Z,1002.63
2017-02-22T01:42:43.023Z,1002.68
2017-02-22T01:43:23.559Z,1002.63
2017-02-22T01:44:04.031Z,1002.56
2017-02-22T01:44:44.552Z,1002.58
2017-02-22T01:45:25.071Z,1002.61
2017-02-22T01:46:05.592Z,1002.57
2017-02-22T01:46:46.025Z,1002.63
2017-02-22T01:47:26.561Z,1002.53
2017-02-22T01:48:07.063Z,1002.56
2017-02-22T01:48:47.603Z,1002.49
2017-02-22T01:49:28.069Z,1002.53
2017-02-22T01:50:08.598Z,1002.51
2017-02-22T01:50:49.083Z,1002.55
2017-02-22T01:51:29.589Z,1002.5
2017-02-22T01:52:10.105Z,1002.47
2017-02-22T01:52:50.599Z,1002.37
2017-02-22T01:53:31.171Z,1002.44
2017-02-22T01:54:11.588Z,1002.41
2017-02-22T01:54:52.095Z,1002.5
2017-02-22T01:55:32.701Z,1002.49
2017-02-22T01:56:13.236Z,1002.39
2017-02-22T01:56:53.725Z,1002.45
2017-02-22T01:57:34.312Z,1002.44
2017-02-22T01:58:14.817Z,1002.45
2017-02-22T01:58:55.322Z,1002.46
2017-02-22T01:59:35.862Z,1002.36
2017-02-22T02:00:16.332Z,1002.43
2017-02-22T02:00:56.855Z,1002.39
2017-02-22T02:01:37.377Z,1002.42
2017-02-22T02:02:17.922Z,1002.45
2017-02-22T02:02:58.521Z,1002.46
2017-02-22T02:03:39.024Z,1002.43
2017-02-22T02:04:19.524Z,1002.39
2017-02-22T02:05:00.036Z,1002.45
2017-02-22T02:05:40.538Z,1002.42
2017-02-22T02:06:21.067Z,1002.47
2017-02-22T02:07:01.566Z,1002.52
2017-02-22T02:07:42.112Z,1002.44
2017-02-22T02:08:22.593Z,1002.49
2017-02-22T02:09:03.124Z,1002.41
2017-02-22T02:09:43.612Z,1002.45
2017-02-22T02:10:24.135Z,1002.47
2017-02-22T02:11:04.604Z,1002.41
2017-02-22T02:11:45.111Z,1002.36
2017-02-22T02:12:25.804Z,1002.4
2017-02-22T02:13:06.294Z,1002.37
2017-02-22T02:13:46.822Z,1002.36
2017-02-22T02:14:27.280Z,1002.34
2017-02-22T02:15:07.810Z,1002.32
2017-02-22T02:15:48.284Z,1002.24
2017-02-22T02:16:28.821Z,1002.32
2017-02-22T02:17:09.269Z,1002.31
2017-02-22T02:17:49.783Z,1002.36
2017-02-22T02:18:30.401Z,1002.29
2017-02-22T02:19:10.900Z,1002.38
2017-02-22T02:19:51.473Z,1002.38
2017-02-22T02:20:31.999Z,1002.37
2017-02-22T02:21:12.718Z,1002.39
2017-02-22T02:21:53.260Z,1002.34
2017-02-22T02:22:33.783Z,1002.3
2017-02-22T02:23:14.254Z,1002.29
2017-02-22T02:23:54.775Z,1002.29
2017-02-22T02:24:35.287Z,1002.2
2017-02-22T02:25:15.788Z,1002.32
2017-02-22T02:25:56.297Z,1002.18
2017-02-22T02:26:36.818Z,1002.28
2017-02-22T02:27:17.349Z,1002.26
2017-02-22T02:27:58.147Z,1002.29
2017-02-22T02:28:38.524Z,1002.25
2017-02-22T02:29:18.998Z,1002.22
2017-02-22T02:29:59.578Z,1002.24
2017-02-22T02:30:40.137Z,1002.26
2017-02-22T02:31:20.706Z,1002.23
2017-02-22T02:32:01.263Z,1002.24
2017-02-22T02:32:41.735Z,1002.29
2017-02-22T02:33:22.231Z,1002.24
2017-02-22T02:34:02.756Z,1002.23
2017-02-22T02:34:43.283Z,1002.25
2017-02-22T02:35:23.810Z,1002.25
2017-02-22T02:36:04.244Z,1002.18
2017-02-22T02:36:44.782Z,1002.23
2017-02-22T02:37:25.274Z,1002.25
2017-02-22T02:38:05.789Z,1002.21
2017-02-22T02:38:46.287Z,1002.26
2017-02-22T02:39:26.811Z,1002.31
2017-02-22T02:40:07.338Z,1002.24
2017-02-22T02:40:47.832Z,1002.22
2017-02-22T02:41:28.330Z,1002.2
2017-02-22T02:42:08.783Z,1002.24
2017-02-22T02:42:49.336Z,1002.2
2017-02-22T02:43:29.840Z,1002.2
2017-02-22T02:44:10.346Z,1002.2
2017-02-22T02:44:50.939Z,1002.15
2017-02-22T02:45:31.377Z,1002.12
2017-02-22T02:46:11.940Z,1002.08
2017-02-22T02:46:52.506Z,1002.06
2017-02-22T02:47:33.250Z,1002.04
2017-02-22T02:48:13.733Z,1002.09
2017-02-22T02:48:54.299Z,1002.06
2017-02-22T02:49:34.878Z,1001.96
2017-02-22T02:50:15.340Z,1001.97
2017-02-22T02:50:55.846Z,1001.91
2017-02-22T02:51:36.428Z,1001.88
2017-02-22T02:52:16.935Z,1001.96
2017-02-22T02:52:57.436Z,1001.96
2017-02-22T02:53:37.991Z,1001.93
2017-02-22T02:54:18.500Z,1001.93
2017-02-22T02:54:59.014Z,1001.91
2017-02-22T02:55:39.552Z,1001.89
2017-02-22T02:56:19.993Z,1001.86
2017-02-22T02:57:00.527Z,1001.86
2017-02-22T02:57:41.032Z,1001.82
2017-02-22T02:58:21.537Z,1001.85
2017-02-22T02:59:02.063Z,1001.83
2017-02-22T02:59:42.529Z,1001.76
2017-02-22T03:00:23.031Z,1001.81
2017-02-22T03:01:03.596Z,1001.78
2017-02-22T03:01:44.023Z,1001.79
2017-02-22T03:02:24.515Z,1001.76
2017-02-22T03:03:05.039Z,1001.7
2017-02-22T03:03:45.539Z,1001.73
2017-02-22T03:04:26.063Z,1001.75
2017-02-22T03:05:06.481Z,1001.73
2017-02-22T03:05:47.029Z,1001.77
2017-02-22T03:06:27.540Z,1001.71
2017-02-22T03:07:08.048Z,1001.69
2017-02-22T03:07:48.470Z,1001.79
2017-02-22T03:08:28.999Z,1001.77
2017-02-22T03:09:09.467Z,1001.73
2017-02-22T03:09:49.969Z,1001.73
2017-02-22T03:10:30.558Z,1001.72
2017-02-22T03:11:10.977Z,1001.73
2017-02-22T03:11:51.492Z,1001.67
2017-02-22T03:12:32.009Z,1001.71
2017-02-22T03:13:12.505Z,1001.71
2017-02-22T03:13:53.015Z,1001.69
2017-02-22T03:14:33.507Z,1001.63
2017-02-22T03:15:14.039Z,1001.62
2017-02-22T03:15:54.568Z,1001.62
2017-02-22T03:16:35.047Z,1001.68
2017-02-22T03:17:15.569Z,1001.71
2017-02-22T03:17:56.021Z,1001.75
2017-02-22T03:18:36.517Z,1001.79
2017-02-22T03:19:17.071Z,1001.76
2017-02-22T03:19:57.543Z,1001.82
2017-02-22T03:20:38.053Z,1001.92
2017-02-22T03:21:18.562Z,1001.85
2017-02-22T03:21:59.045Z,1001.89
2017-02-22T03:22:39.562Z,1001.92
2017-02-22T03:23:20.056Z,1001.95
2017-02-22T03:24:00.551Z,1001.95
2017-02-22T03:24:41.066Z,1001.97
2017-02-22T03:25:21.567Z,1001.93
2017-02-22T03:26:02.096Z,1001.96
2017-02-22T03:26:42.591Z,1002
2017-02-22T03:29:01.011Z,1001.92
2017-02-22T03:29:41.529Z,1002.01
2017-02-22T03:30:22.028Z,1002.01
2017-02-22T03:31:02.498Z,1001.97
2017-02-22T03:31:43.004Z,1001.95
2017-02-22T03:32:23.472Z,1001.98
2017-02-22T03:33:03.998Z,1001.98
2017-02-22T03:33:44.492Z,1002
2017-02-22T03:34:25.000Z,1001.95
2017-02-22T03:35:05.550Z,1002
2017-02-22T03:35:46.031Z,1001.98
2017-02-22T03:36:26.571Z,1002.03
2017-02-22T03:37:07.029Z,1001.99
2017-02-22T03:37:47.563Z,1002.01
2017-02-22T03:38:28.044Z,1001.98
2017-02-22T03:39:08.554Z,1002
2017-02-22T03:39:49.052Z,1002.01
2017-02-22T03:40:29.544Z,1002.02
2017-02-22T03:41:10.418Z,1001.97
2017-02-22T03:41:50.529Z,1002.01
2017-02-22T03:42:31.003Z,1002.04
2017-02-22T03:43:11.508Z,1002.01
2017-02-22T03:43:52.020Z,1002.1
2017-02-22T03:44:32.493Z,1002.01
2017-02-22T03:45:13.003Z,1002.05
2017-02-22T03:45:53.512Z,1002.05
2017-02-22T03:46:34.035Z,1002.02
2017-02-22T03:47:14.569Z,1002.06
2017-02-22T03:47:55.048Z,1002.05
2017-02-22T03:48:35.569Z,1002.01
2017-02-22T03:49:16.012Z,1002.08
2017-02-22T03:49:56.589Z,1002.01
2017-02-22T03:50:37.135Z,1002.02
2017-02-22T03:51:17.578Z,1002.1
2017-02-22T03:51:58.167Z,1002.06
2017-02-22T03:52:38.613Z,1002.08
2017-02-22T03:53:19.063Z,1002.06
2017-02-22T03:53:59.564Z,1002.05
2017-02-22T03:54:40.071Z,1002.12
2017-02-22T03:55:20.538Z,1002.08
2017-02-22T03:56:01.031Z,1002.05
2017-02-22T03:56:41.540Z,1002.04
2017-02-22T03:57:22.013Z,1001.98
2017-02-22T03:58:02.503Z,1002.04
2017-02-22T03:58:43.008Z,1002.04
2017-02-22T03:59:23.530Z,1002.03
2017-02-22T04:00:04.042Z,1001.98
2017-02-22T04:00:44.538Z,1001.99
2017-02-22T04:01:25.025Z,1001.95
2017-02-22T04:02:05.514Z,1001.99
2017-02-22T04:02:46.004Z,1001.98
2017-02-22T04:03:26.485Z,1001.93
2017-02-22T04:04:07.002Z,1002.01
2017-02-22T04:04:47.499Z,1001.96
2017-02-22T04:05:28.023Z,1001.99
2017-02-22T04:06:08.545Z,1001.96
2017-02-22T04:06:49.113Z,1001.9
2017-02-22T04:07:29.613Z,1001.88
2017-02-22T04:08:10.102Z,1001.98
2017-02-22T04:08:50.593Z,1001.84
2017-02-22T04:09:31.084Z,1001.84
2017-02-22T04:10:11.598Z,1001.87
2017-02-22T04:10:52.100Z,1001.88
2017-02-22T04:11:32.633Z,1001.83
2017-02-22T04:12:13.162Z,1001.84
2017-02-22T04:12:53.650Z,1001.89
2017-02-22T04:13:34.150Z,1001.82
2017-02-22T04:14:14.734Z,1001.85
2017-02-22T04:14:55.113Z,1001.86
2017-02-22T04:15:35.663Z,1001.84
2017-02-22T04:16:16.105Z,1001.82
2017-02-22T04:16:56.697Z,1001.85
2017-02-22T04:17:37.177Z,1001.87
2017-02-22T04:18:17.967Z,1001.87
2017-02-22T04:18:59.484Z,1001.86
2017-02-22T04:19:39.457Z,1001.85
2017-02-22T04:20:19.972Z,1001.83
2017-02-22T04:21:00.438Z,1001.8
2017-02-22T04:21:40.899Z,1001.86
2017-02-22T04:22:21.414Z,1001.78
2017-02-22T04:23:01.934Z,1001.83
2017-02-22T04:23:42.539Z,1001.81
2017-02-22T04:24:22.996Z,1001.83
2017-02-22T04:25:03.506Z,1001.75
2017-02-22T04:25:44.035Z,1001.78
2017-02-22T04:26:24.502Z,1001.71
2017-02-22T04:27:05.038Z,1001.69
2017-02-22T04:27:45.571Z,1001.7
2017-02-22T04:28:26.070Z,1001.71
2017-02-22T04:29:06.541Z,1001.63
2017-02-22T04:29:47.043Z,1001.64
2017-02-22T04:30:27.566Z,1001.64
2017-02-22T04:31:08.075Z,1001.63
2017-02-22T04:31:48.624Z,1001.64
2017-02-22T04:32:29.147Z,1001.59
2017-02-22T04:33:09.665Z,1001.67
2017-02-22T04:33:50.190Z,1001.65
2017-02-22T04:34:30.690Z,1001.59
2017-02-22T04:35:11.191Z,1001.59
2017-02-22T04:35:51.784Z,1001.56
2017-02-22T04:36:32.364Z,1001.56
2017-02-22T04:37:12.873Z,1001.54
2017-02-22T04:37:53.325Z,1001.53
2017-02-22T04:38:33.850Z,1001.53
2017-02-22T04:39:14.376Z,1001.49
2017-02-22T04:39:54.857Z,1001.49
2017-02-22T04:40:35.363Z,1001.48
2017-02-22T04:41:15.915Z,1001.49
2017-02-22T04:41:56.365Z,1001.49
2017-02-22T04:42:36.843Z,1001.48
2017-02-22T04:43:17.400Z,1001.41
2017-02-22T04:43:57.845Z,1001.47
2017-02-22T04:44:38.417Z,1001.44
2017-02-22T04:45:19.008Z,1001.39
2017-02-22T04:45:59.477Z,1001.32
2017-02-22T04:46:39.946Z,1001.39
2017-02-22T04:47:20.475Z,1001.4
2017-02-22T04:48:00.948Z,1001.29
2017-02-22T04:48:41.507Z,1001.4
2017-02-22T04:49:22.008Z,1001.33
2017-02-22T04:50:02.505Z,1001.3
2017-02-22T04:50:43.050Z,1001.29
2017-02-22T04:51:23.544Z,1001.35
2017-02-22T04:52:04.020Z,1001.31
2017-02-22T04:52:44.519Z,1001.32
2017-02-22T04:53:25.011Z,1001.33
2017-02-22T04:54:05.499Z,1001.38
2017-02-22T04:54:46.285Z,1001.3
2017-02-22T04:55:26.800Z,1001.34
2017-02-22T04:56:07.345Z,1001.28
2017-02-22T04:56:47.776Z,1001.26
2017-02-22T04:57:28.245Z,1001.2
2017-02-22T04:58:08.783Z,1001.21
2017-02-22T04:58:49.242Z,1001.16
2017-02-22T04:59:29.734Z,1001.27
2017-02-22T05:00:10.242Z,1001.17
2017-02-22T05:00:50.764Z,1001.2
2017-02-22T05:01:31.204Z,1001.24
2017-02-22T05:02:11.736Z,1001.18
2017-02-22T05:02:52.218Z,1001.21
2017-02-22T05:03:32.698Z,1001.2
2017-02-22T05:04:13.220Z,1001.22
2017-02-22T05:04:53.681Z,1001.14
2017-02-22T05:05:34.139Z,1001.15
2017-02-22T05:06:14.678Z,1001.19
2017-02-22T05:06:55.189Z,1001.16
2017-02-22T05:07:35.658Z,1001.13
2017-02-22T05:08:16.166Z,1001.14
2017-02-22T05:08:56.671Z,1001.14
2017-02-22T05:09:37.202Z,1001.06
2017-02-22T05:10:17.866Z,1001.11
2017-02-22T05:10:58.307Z,1001.13
2017-02-22T05:11:38.779Z,1001.04
2017-02-22T05:12:19.247Z,1001.06
2017-02-22T05:12:59.788Z,1001.05
2017-02-22T05:13:40.303Z,1001.07
2017-02-22T05:14:20.733Z,1001.07
2017-02-22T05:15:01.228Z,1001.03
2017-02-22T05:15:41.732Z,1001.11
2017-02-22T05:16:22.504Z,1001.07
2017-02-22T05:17:03.020Z,1001.08
2017-02-22T05:17:43.554Z,1001.09
2017-02-22T05:18:24.091Z,1001.03
2017-02-22T05:19:04.546Z,1000.93
2017-02-22T05:19:45.088Z,1001.06
2017-02-22T05:20:25.575Z,1001.01
2017-02-22T05:21:06.060Z,1001.05
2017-02-22T05:21:46.553Z,1001.02
2017-02-22T05:22:27.022Z,1001.01
2017-02-22T05:23:07.597Z,1001
2017-02-22T05:23:48.028Z,1000.96
2017-02-22T05:24:28.550Z,1000.9
2017-02-22T05:25:09.012Z,1000.87
2017-02-22T05:25:49.561Z,1000.88
2017-02-22T05:26:30.034Z,1000.87
2017-02-22T05:27:10.543Z,1000.89
2017-02-22T05:27:51.029Z,1000.91
2017-02-22T05:28:31.566Z,1000.87
2017-02-22T05:29:12.008Z,1000.93
2017-02-22T05:29:52.497Z,1000.96
2017-02-22T05:30:33.059Z,1000.96
2017-02-22T05:31:14.001Z,1000.93
2017-02-22T05:31:54.276Z,1000.93
2017-02-22T05:32:34.850Z,1000.96
2017-02-22T05:33:15.323Z,1000.94
2017-02-22T05:33:55.836Z,1000.86
2017-02-22T05:34:36.310Z,1000.87
2017-02-22T05:35:16.769Z,1000.85
2017-02-22T05:35:57.245Z,1000.87
2017-02-22T05:36:37.763Z,1000.9
2017-02-22T05:37:18.283Z,1000.91
2017-02-22T05:37:58.773Z,1000.95
2017-02-22T05:38:39.300Z,1000.86
2017-02-22T05:39:19.951Z,1000.96
2017-02-22T05:40:00.367Z,1000.91
2017-02-22T05:40:40.900Z,1000.89
2017-02-22T05:41:21.447Z,1000.86
2017-02-22T05:42:01.885Z,1000.85
2017-02-22T05:42:42.361Z,1000.88
2017-02-22T05:43:22.888Z,1000.86
2017-02-22T05:44:03.421Z,1000.86
2017-02-22T05:44:43.922Z,1000.88
2017-02-22T05:45:24.491Z,1000.83
2017-02-22T05:46:04.953Z,1000.83
2017-02-22T05:46:45.457Z,1000.87
2017-02-22T05:47:25.925Z,1000.84
2017-02-22T05:48:06.406Z,1000.81
2017-02-22T05:48:46.907Z,1000.86
2017-02-22T05:49:27.401Z,1000.8
2017-02-22T05:50:07.881Z,1000.83
2017-02-22T05:50:48.367Z,1000.89
2017-02-22T05:51:28.995Z,1000.88
2017-02-22T05:52:09.376Z,1000.87
2017-02-22T05:52:49.890Z,1000.83
2017-02-22T05:53:30.373Z,1000.82
2017-02-22T05:54:10.890Z,1000.84
2017-02-22T05:54:51.412Z,1000.84
2017-02-22T05:55:31.898Z,1000.85
2017-02-22T05:56:12.685Z,1000.79
2017-02-22T05:56:53.198Z,1000.9
2017-02-22T05:57:33.684Z,1000.81
2017-02-22T05:58:14.177Z,1000.8
2017-02-22T05:58:54.719Z,1000.82
2017-02-22T05:59:35.245Z,1000.82
2017-02-22T06:00:15.719Z,1000.82
2017-02-22T06:00:56.145Z,1000.79
2017-02-22T06:01:36.649Z,1000.79
2017-02-22T06:02:17.140Z,1000.79
2017-02-22T06:02:57.681Z,1000.79
2017-02-22T06:03:38.153Z,1000.73
2017-02-22T06:04:18.658Z,1000.73
2017-02-22T06:04:59.163Z,1000.82
2017-02-22T06:05:39.645Z,1000.81
2017-02-22T06:06:20.119Z,1000.82
2017-02-22T06:07:00.688Z,1000.76
2017-02-22T06:07:41.108Z,1000.83
2017-02-22T06:08:21.625Z,1000.81
2017-02-22T06:09:02.161Z,1000.84
2017-02-22T06:09:42.724Z,1000.87
2017-02-22T06:10:23.177Z,1000.87
2017-02-22T06:11:03.676Z,1000.85
2017-02-22T06:11:44.258Z,1000.91
2017-02-22T06:12:24.752Z,1000.87
2017-02-22T06:13:05.223Z,1000.9
2017-02-22T06:13:45.753Z,1000.89
2017-02-22T06:14:26.209Z,1000.85
2017-02-22T06:15:06.738Z,1000.87
2017-02-22T06:15:48.711Z,1000.83
2017-02-22T06:16:29.110Z,1000.92
2017-02-22T06:17:09.642Z,1000.85
2017-02-22T06:17:50.087Z,1000.92
2017-02-22T06:18:30.618Z,1000.87
2017-02-22T06:19:11.159Z,1000.88
2017-02-22T06:19:51.623Z,1000.99
2017-02-22T06:20:32.156Z,1000.82
2017-02-22T06:21:13.514Z,1000.9
2017-02-22T06:21:53.162Z,1000.93
2017-02-22T06:22:33.724Z,1000.9
2017-02-22T06:23:14.204Z,1000.89
2017-02-22T06:23:54.734Z,1000.95
2017-02-22T06:24:35.253Z,1000.89
2017-02-22T06:25:15.734Z,1000.94
2017-02-22T06:25:56.273Z,1000.92
2017-02-22T06:26:36.770Z,1000.91
2017-02-22T06:27:17.335Z,1000.91
2017-02-22T06:27:57.807Z,1000.95
2017-02-22T06:28:38.301Z,1000.91
2017-02-22T06:29:18.800Z,1000.85
2017-02-22T06:29:59.258Z,1000.99
2017-02-22T06:30:39.758Z,1000.88
2017-02-22T06:31:20.260Z,1000.94
2017-02-22T06:32:00.718Z,1000.96
2017-02-22T06:32:41.297Z,1000.96
2017-02-22T06:33:21.705Z,1000.93
2017-02-22T06:34:02.235Z,1001
2017-02-22T06:34:42.863Z,1000.99
2017-02-22T06:35:23.239Z,1000.91
2017-02-22T06:36:03.887Z,1000.91
2017-02-22T06:36:44.359Z,1000.99
2017-02-22T06:37:24.929Z,1000.93
2017-02-22T06:38:05.446Z,1000.92
2017-02-22T06:38:45.937Z,1000.87
2017-02-22T06:39:27.106Z,1000.88
2017-02-22T06:40:08.007Z,1000.94
2017-02-22T06:40:48.569Z,1000.94
2017-02-22T06:41:29.017Z,1000.95
2017-02-22T06:42:09.559Z,1000.98
2017-02-22T06:42:50.055Z,1000.96
2017-02-22T06:43:31.114Z,1000.95
2017-02-22T06:45:35.505Z,1000.94
2017-02-22T06:46:18.428Z,1001.02
2017-02-22T06:46:58.716Z,1000.93
2017-02-22T06:47:39.234Z,1000.99
2017-02-22T06:48:19.823Z,1000.98
2017-02-22T06:49:00.331Z,1001.07
2017-02-22T06:49:40.834Z,1001.01
2017-02-22T06:50:21.393Z,1001.02
2017-02-22T06:51:01.931Z,1001.05
2017-02-22T06:51:42.622Z,1001.08
2017-02-22T06:52:23.133Z,1000.9
2017-02-22T06:53:04.641Z,1001.09
2017-02-22T06:53:45.383Z,1001.11
2017-02-22T06:54:25.916Z,1001.1
2017-02-22T06:55:06.389Z,1001.11
2017-02-22T06:55:46.863Z,1001.09
2017-02-22T06:56:27.381Z,1001.14
2017-02-22T06:57:07.981Z,1001.15
2017-02-22T06:57:48.320Z,1001.07
2017-02-22T06:58:28.837Z,1001.14
2017-02-22T06:59:09.764Z,1001.07
2017-02-22T06:59:50.242Z,1001.09
2017-02-22T07:00:30.735Z,1001.14
2017-02-22T07:01:11.309Z,1001.07
2017-02-22T07:01:51.786Z,1001.13
2017-02-22T07:02:32.269Z,1001.18
2017-02-22T07:03:12.750Z,1001.15
2017-02-22T07:03:53.236Z,1001.2
2017-02-22T07:04:33.696Z,1001.09
2017-02-22T07:05:14.241Z,1001.11
2017-02-22T07:05:54.759Z,1001.06
2017-02-22T07:06:35.234Z,1001.1
2017-02-22T07:07:15.755Z,1001.03
2017-02-22T07:07:56.872Z,1001.05
2017-02-22T07:08:37.393Z,1001.01
2017-02-22T07:09:18.054Z,1000.98
2017-02-22T07:09:58.472Z,1000.99
2017-02-22T07:10:38.980Z,1001.02
2017-02-22T07:11:19.482Z,1000.96
2017-02-22T07:11:59.959Z,1001
2017-02-22T07:12:40.408Z,1001
2017-02-22T07:13:20.899Z,1001
2017-02-22T07:14:01.406Z,1001.01
2017-02-22T07:14:41.860Z,1001.01
2017-02-22T07:15:22.400Z,1000.98
2017-02-22T07:16:02.882Z,1001.08
2017-02-22T07:16:43.361Z,1000.96
2017-02-22T07:17:23.961Z,1001.02
2017-02-22T07:18:04.426Z,1000.98
2017-02-22T07:18:44.990Z,1001
2017-02-22T07:19:25.491Z,1001
2017-02-22T07:20:05.972Z,1000.96
2017-02-22T07:20:46.502Z,1001.01
2017-02-22T07:21:27.057Z,1001.07
2017-02-22T07:22:07.554Z,1000.98
2017-02-22T07:22:47.971Z,1001.03
2017-02-22T07:23:28.492Z,1001.07
2017-02-22T07:24:08.967Z,1000.99
2017-02-22T07:24:49.769Z,1001
2017-02-22T07:25:30.468Z,1000.97
2017-02-22T07:26:10.884Z,1000.94
2017-02-22T07:26:51.454Z,1000.95
2017-02-22T07:27:31.940Z,1000.94
2017-02-22T07:28:12.463Z,1000.91
2017-02-22T07:28:52.926Z,1000.97
2017-02-22T07:29:33.456Z,1000.94
2017-02-22T07:30:13.953Z,1001.01
2017-02-22T07:30:54.459Z,1000.87
2017-02-22T07:31:34.965Z,1000.98
2017-02-22T07:32:15.438Z,1001.04
2017-02-22T07:32:55.917Z,1000.93
2017-02-22T07:33:36.451Z,1000.91
2017-02-22T07:34:16.904Z,1000.93
2017-02-22T07:34:57.401Z,1000.98
2017-02-22T07:35:37.919Z,1000.99
2017-02-22T07:36:18.382Z,1000.93
2017-02-22T07:36:58.912Z,1000.94
2017-02-22T07:37:39.441Z,1000.96
2017-02-22T07:38:19.937Z,1000.95
2017-02-22T07:39:00.459Z,1000.84
2017-02-22T07:39:40.950Z,1000.99
2017-02-22T07:40:21.445Z,1001.08
2017-02-22T07:41:01.931Z,1001.06
2017-02-22T07:41:42.433Z,1001.1
2017-02-22T07:42:22.943Z,1001.19
2017-02-22T07:43:03.403Z,1001.06
2017-02-22T07:43:43.894Z,1001.12
2017-02-22T07:44:24.436Z,1001.11
2017-02-22T07:45:04.920Z,1001.16
2017-02-22T07:45:45.407Z,1001.07
2017-02-22T07:46:25.839Z,1001.19
2017-02-22T07:47:06.396Z,1001.17
2017-02-22T07:47:46.896Z,1001.18
2017-02-22T07:48:27.507Z,1001.11
2017-02-22T07:49:08.033Z,1001.07
2017-02-22T07:49:48.541Z,1001.17
2017-02-22T07:50:29.023Z,1001.11
2017-02-22T07:51:09.550Z,1001.09
2017-02-22T07:51:50.011Z,1001.12
2017-02-22T07:52:30.513Z,1001.13
2017-02-22T07:53:11.101Z,1001.14
2017-02-22T07:53:51.953Z,1001.09
2017-02-22T07:54:32.471Z,1001.04
2017-02-22T07:55:12.893Z,1001.09
2017-02-22T07:55:53.714Z,1001.06
2017-02-22T07:56:34.281Z,1000.99
2017-02-22T07:57:15.109Z,1001.09
2017-02-22T07:57:55.451Z,1001.07
2017-02-22T07:58:35.998Z,1001.14
2017-02-22T07:59:16.657Z,1001.09
2017-02-22T07:59:57.685Z,1001.08
2017-02-22T08:00:38.223Z,1001.11
2017-02-22T08:01:18.663Z,1001.01
2017-02-22T08:01:59.241Z,1001.14
2017-02-22T08:02:39.821Z,1001.11
2017-02-22T08:03:20.307Z,1001.07
2017-02-22T08:04:00.802Z,1001.01
2017-02-22T08:04:41.296Z,1001.02
2017-02-22T08:05:21.813Z,1000.96
2017-02-22T08:06:02.334Z,1000.99
2017-02-22T08:06:42.795Z,1001.01
2017-02-22T08:07:23.336Z,1001.03
2017-02-22T08:08:03.884Z,1000.99
2017-02-22T08:08:44.430Z,1000.99
2017-02-22T08:09:24.885Z,1001.11
2017-02-22T08:10:05.336Z,1001.12
2017-02-22T08:10:45.849Z,1001.02
2017-02-22T08:11:26.374Z,1001.14
2017-02-22T08:12:07.045Z,1001.11
2017-02-22T08:12:47.376Z,1001.09
2017-02-22T08:13:27.891Z,1001.14
2017-02-22T08:14:08.441Z,1001.1
2017-02-22T08:14:48.883Z,1001.12